CSC8194 ZSOF-ZPLJ
Flight info
| Callsign | CSC8194 |
|---|---|
| Flight time | N/A |
| Altitude | 32100 |
| Route | MIDOX R343 WHA A581 SGM A599 GULOT W146 BUBSU W162 DAL |
| Aircraft | A319/L-V/N |
Departure
| Time | 2026-04-26 01:23 |
|---|---|
| Airport | Hefei Xinqiao International Airport (ZSOF) |
Arrival
| Time | N/A |
|---|---|
| Airport | Lijiang Sanyi International Airport (ZPLJ) |
| Time | Latitude | Longitude | Altitude | Speed | Heading |
|---|---|---|---|---|---|
| 2026-04-26 00:52 | 31.99046 | 116.96806 | 216 ft | 0 kts | 189° |
| 2026-04-26 01:09 | 31.99048 | 116.96806 | 216 ft | 1 kts | 190° |
| 2026-04-26 01:09 | 31.99063 | 116.96809 | 216 ft | 2 kts | 189° |
| 2026-04-26 01:09 | 31.99078 | 116.96812 | 216 ft | 2 kts | 189° |
| 2026-04-26 01:10 | 31.99092 | 116.96815 | 216 ft | 2 kts | 189° |
| 2026-04-26 01:10 | 31.99102 | 116.96817 | 216 ft | 2 kts | 187° |
| 2026-04-26 01:10 | 31.99117 | 116.96814 | 216 ft | 2 kts | 153° |
| 2026-04-26 01:10 | 31.99128 | 116.96803 | 216 ft | 2 kts | 126° |
| 2026-04-26 01:11 | 31.99134 | 116.96789 | 216 ft | 0 kts | 101° |
| 2026-04-26 01:11 | 31.99134 | 116.96787 | 216 ft | 1 kts | 101° |
| 2026-04-26 01:11 | 31.99140 | 116.96812 | 216 ft | 3 kts | 58° |
| 2026-04-26 01:11 | 31.99161 | 116.96828 | 216 ft | 3 kts | 14° |
| 2026-04-26 01:12 | 31.99188 | 116.96841 | 216 ft | 4 kts | 39° |
| 2026-04-26 01:12 | 31.99200 | 116.96870 | 216 ft | 3 kts | 80° |
| 2026-04-26 01:12 | 31.99207 | 116.96923 | 216 ft | 7 kts | 79° |
| 2026-04-26 01:12 | 31.99221 | 116.96980 | 216 ft | 5 kts | 69° |
| 2026-04-26 01:13 | 31.99239 | 116.97020 | 216 ft | 3 kts | 58° |
| 2026-04-26 01:13 | 31.99261 | 116.97034 | 216 ft | 3 kts | 9° |
| 2026-04-26 01:13 | 31.99285 | 116.97026 | 216 ft | 4 kts | 330° |
| 2026-04-26 01:13 | 31.99329 | 116.96997 | 216 ft | 7 kts | 330° |
| 2026-04-26 01:14 | 31.99376 | 116.96966 | 216 ft | 7 kts | 330° |
| 2026-04-26 01:14 | 31.99423 | 116.96935 | 216 ft | 7 kts | 330° |
| 2026-04-26 01:14 | 31.99470 | 116.96904 | 216 ft | 7 kts | 330° |
| 2026-04-26 01:14 | 31.99517 | 116.96873 | 216 ft | 7 kts | 330° |
| 2026-04-26 01:15 | 31.99563 | 116.96841 | 216 ft | 7 kts | 330° |
| 2026-04-26 01:15 | 31.99610 | 116.96811 | 216 ft | 7 kts | 330° |
| 2026-04-26 01:15 | 31.99645 | 116.96782 | 216 ft | 3 kts | 345° |
| 2026-04-26 01:15 | 31.99693 | 116.96751 | 216 ft | 7 kts | 330° |
| 2026-04-26 01:16 | 31.99745 | 116.96715 | 216 ft | 7 kts | 330° |
| 2026-04-26 01:16 | 31.99795 | 116.96681 | 216 ft | 7 kts | 330° |
| 2026-04-26 01:16 | 31.99843 | 116.96649 | 216 ft | 7 kts | 330° |
| 2026-04-26 01:16 | 31.99889 | 116.96618 | 216 ft | 7 kts | 330° |
| 2026-04-26 01:17 | 31.99936 | 116.96587 | 216 ft | 7 kts | 330° |
| 2026-04-26 01:17 | 31.99969 | 116.96564 | 216 ft | 3 kts | 330° |
| 2026-04-26 01:17 | 31.99980 | 116.96556 | 216 ft | 3 kts | 331° |
| 2026-04-26 01:17 | 32.00015 | 116.96535 | 216 ft | 4 kts | 332° |
| 2026-04-26 01:18 | 32.00037 | 116.96529 | 216 ft | 3 kts | 11° |
| 2026-04-26 01:18 | 32.00054 | 116.96546 | 216 ft | 3 kts | 61° |
| 2026-04-26 01:18 | 32.00077 | 116.96594 | 216 ft | 7 kts | 59° |
| 2026-04-26 01:18 | 32.00099 | 116.96637 | 216 ft | 3 kts | 59° |
| 2026-04-26 01:19 | 32.00104 | 116.96648 | 216 ft | 0 kts | 59° |
| 2026-04-26 01:20 | 32.00106 | 116.96651 | 216 ft | 1 kts | 60° |
| 2026-04-26 01:20 | 32.00113 | 116.96664 | 216 ft | 2 kts | 61° |
| 2026-04-26 01:20 | 32.00124 | 116.96689 | 216 ft | 4 kts | 63° |
| 2026-04-26 01:21 | 32.00137 | 116.96722 | 216 ft | 5 kts | 65° |
| 2026-04-26 01:21 | 32.00128 | 116.96760 | 216 ft | 6 kts | 136° |
| 2026-04-26 01:21 | 32.00096 | 116.96799 | 216 ft | 7 kts | 134° |
| 2026-04-26 01:21 | 32.00062 | 116.96827 | 216 ft | 0 kts | 149° |
| 2026-04-26 01:22 | 32.00062 | 116.96828 | 216 ft | 1 kts | 149° |
| 2026-04-26 01:22 | 31.99852 | 116.96968 | 217 ft | 70 kts | 149° |
| 2026-04-26 01:22 | 31.99230 | 116.97397 | 217 ft | 132 kts | 149° |
| 2026-04-26 01:23 | 31.98408 | 116.97981 | 613 ft | 141 kts | 148° |
| 2026-04-26 01:23 | 31.97597 | 116.98556 | 1228 ft | 136 kts | 147° |
| 2026-04-26 01:23 | 31.96831 | 116.99174 | 1794 ft | 135 kts | 143° |
| 2026-04-26 01:23 | 31.96067 | 116.99823 | 2240 ft | 139 kts | 147° |
| 2026-04-26 01:24 | 31.95200 | 117.00409 | 2588 ft | 149 kts | 155° |
| 2026-04-26 01:24 | 31.94236 | 117.00903 | 3026 ft | 155 kts | 156° |
| 2026-04-26 01:24 | 31.93236 | 117.01503 | 3406 ft | 167 kts | 153° |
| 2026-04-26 01:24 | 31.92174 | 117.02193 | 3744 ft | 184 kts | 152° |
| 2026-04-26 01:25 | 31.91015 | 117.02965 | 4094 ft | 201 kts | 152° |
| 2026-04-26 01:25 | 31.89765 | 117.03803 | 4544 ft | 215 kts | 152° |
| 2026-04-26 01:25 | 31.88393 | 117.04721 | 4908 ft | 239 kts | 152° |
| 2026-04-26 01:25 | 31.86885 | 117.05725 | 5406 ft | 258 kts | 152° |
| 2026-04-26 01:26 | 31.85281 | 117.06811 | 5973 ft | 274 kts | 152° |
| 2026-04-26 01:26 | 31.83623 | 117.07936 | 6783 ft | 281 kts | 152° |
| 2026-04-26 01:26 | 31.81931 | 117.09081 | 7658 ft | 285 kts | 152° |
| 2026-04-26 01:26 | 31.80228 | 117.10231 | 8501 ft | 289 kts | 152° |
| 2026-04-26 01:27 | 31.78479 | 117.11404 | 9313 ft | 293 kts | 153° |
| 2026-04-26 01:27 | 31.76580 | 117.12188 | 10058 ft | 295 kts | 174° |
| 2026-04-26 01:27 | 31.74539 | 117.12101 | 10622 ft | 303 kts | 196° |
| 2026-04-26 01:27 | 31.72597 | 117.11060 | 10974 ft | 316 kts | 219° |
| 2026-04-26 01:28 | 31.71098 | 117.09113 | 11314 ft | 327 kts | 243° |
| 2026-04-26 01:28 | 31.70224 | 117.06670 | 11924 ft | 332 kts | 252° |
| 2026-04-26 01:28 | 31.69441 | 117.04105 | 12655 ft | 335 kts | 253° |
| 2026-04-26 01:28 | 31.68643 | 117.01517 | 13381 ft | 338 kts | 253° |
| 2026-04-26 01:29 | 31.67840 | 116.98950 | 14092 ft | 340 kts | 253° |
| 2026-04-26 01:29 | 31.67024 | 116.96349 | 14773 ft | 343 kts | 253° |
| 2026-04-26 01:29 | 31.66197 | 116.93717 | 15454 ft | 346 kts | 253° |
| 2026-04-26 01:29 | 31.65368 | 116.91088 | 16120 ft | 348 kts | 253° |
| 2026-04-26 01:30 | 31.64521 | 116.88406 | 16777 ft | 350 kts | 253° |
| 2026-04-26 01:30 | 31.63677 | 116.85740 | 17414 ft | 352 kts | 253° |
| 2026-04-26 01:30 | 31.62818 | 116.83031 | 18041 ft | 355 kts | 253° |
| 2026-04-26 01:30 | 31.61958 | 116.80323 | 18645 ft | 357 kts | 253° |
| 2026-04-26 01:31 | 31.61089 | 116.77587 | 19232 ft | 359 kts | 253° |
| 2026-04-26 01:31 | 31.60216 | 116.74841 | 19813 ft | 362 kts | 253° |
| 2026-04-26 01:31 | 31.59343 | 116.72098 | 20370 ft | 364 kts | 253° |
| 2026-04-26 01:31 | 31.58455 | 116.69313 | 20916 ft | 366 kts | 253° |
| 2026-04-26 01:32 | 31.57565 | 116.66524 | 21444 ft | 369 kts | 254° |
| 2026-04-26 01:32 | 31.56665 | 116.63705 | 21962 ft | 371 kts | 254° |
| 2026-04-26 01:32 | 31.55754 | 116.60860 | 22476 ft | 373 kts | 254° |
| 2026-04-26 01:32 | 31.54850 | 116.58035 | 22959 ft | 375 kts | 254° |
| 2026-04-26 01:33 | 31.53931 | 116.55170 | 23429 ft | 378 kts | 254° |
| 2026-04-26 01:33 | 31.53007 | 116.52286 | 23889 ft | 380 kts | 254° |
| 2026-04-26 01:33 | 31.52074 | 116.49377 | 24338 ft | 382 kts | 254° |
| 2026-04-26 01:33 | 31.51137 | 116.46458 | 24767 ft | 384 kts | 254° |
| 2026-04-26 01:34 | 31.50195 | 116.43527 | 25185 ft | 387 kts | 254° |
| 2026-04-26 01:34 | 31.49248 | 116.40578 | 25456 ft | 393 kts | 254° |
| 2026-04-26 01:34 | 31.48279 | 116.37566 | 25761 ft | 398 kts | 254° |
| 2026-04-26 01:34 | 31.47305 | 116.34541 | 26158 ft | 400 kts | 254° |
| 2026-04-26 01:35 | 31.46325 | 116.31503 | 26563 ft | 402 kts | 253° |
| 2026-04-26 01:35 | 31.45341 | 116.28452 | 26948 ft | 404 kts | 253° |
| 2026-04-26 01:35 | 31.44334 | 116.25339 | 27319 ft | 406 kts | 254° |
| 2026-04-26 01:35 | 31.43346 | 116.22282 | 27681 ft | 409 kts | 254° |
| 2026-04-26 01:36 | 31.42327 | 116.19135 | 28041 ft | 411 kts | 254° |
| 2026-04-26 01:36 | 31.41325 | 116.16042 | 28387 ft | 413 kts | 254° |
| 2026-04-26 01:36 | 31.40289 | 116.12852 | 28747 ft | 415 kts | 254° |
| 2026-04-26 01:37 | 31.38245 | 116.06561 | 29530 ft | 416 kts | 254° |
| 2026-04-26 01:37 | 31.37218 | 116.03413 | 30019 ft | 414 kts | 254° |
| 2026-04-26 01:37 | 31.36185 | 116.00250 | 30481 ft | 413 kts | 254° |
| 2026-04-26 01:37 | 31.35160 | 115.97111 | 30881 ft | 413 kts | 254° |
| 2026-04-26 01:38 | 31.34146 | 115.94009 | 31237 ft | 413 kts | 254° |
| 2026-04-26 01:38 | 31.33125 | 115.90885 | 31553 ft | 415 kts | 255° |
| 2026-04-26 01:38 | 31.32088 | 115.87708 | 31863 ft | 416 kts | 255° |
| 2026-04-26 01:38 | 31.31083 | 115.84571 | 32045 ft | 417 kts | 255° |
| 2026-04-26 01:39 | 31.30072 | 115.81390 | 32049 ft | 417 kts | 255° |
| 2026-04-26 01:39 | 31.28042 | 115.75016 | 32051 ft | 418 kts | 255° |
| 2026-04-26 01:40 | 31.26013 | 115.68675 | 32052 ft | 418 kts | 255° |
| 2026-04-26 01:40 | 31.23981 | 115.62342 | 32052 ft | 418 kts | 255° |
| 2026-04-26 01:41 | 31.21940 | 115.56001 | 32052 ft | 418 kts | 255° |
| 2026-04-26 01:41 | 31.19898 | 115.49668 | 32052 ft | 418 kts | 255° |
| 2026-04-26 01:42 | 31.17843 | 115.43308 | 32053 ft | 418 kts | 255° |
| 2026-04-26 01:42 | 31.15748 | 115.36834 | 32054 ft | 424 kts | 255° |
| 2026-04-26 01:43 | 31.13564 | 115.30087 | 32053 ft | 439 kts | 255° |
| 2026-04-26 01:43 | 31.11402 | 115.23339 | 32052 ft | 441 kts | 255° |
| 2026-04-26 01:44 | 31.09277 | 115.16615 | 32052 ft | 442 kts | 255° |
| 2026-04-26 01:44 | 31.07146 | 115.09920 | 32052 ft | 442 kts | 255° |
| 2026-04-26 01:45 | 31.05008 | 115.03233 | 32052 ft | 442 kts | 255° |
| 2026-04-26 01:45 | 31.02856 | 114.96514 | 32052 ft | 442 kts | 255° |
| 2026-04-26 01:46 | 31.00712 | 114.89826 | 32052 ft | 442 kts | 255° |
| 2026-04-26 01:46 | 30.98557 | 114.83117 | 32052 ft | 442 kts | 255° |
| 2026-04-26 01:47 | 30.96399 | 114.76419 | 32052 ft | 443 kts | 255° |
| 2026-04-26 01:47 | 30.94245 | 114.69747 | 32053 ft | 443 kts | 255° |
| 2026-04-26 01:48 | 30.92069 | 114.63025 | 32054 ft | 443 kts | 255° |
| 2026-04-26 01:48 | 30.89908 | 114.56362 | 32053 ft | 443 kts | 255° |
| 2026-04-26 01:49 | 30.87722 | 114.49643 | 32051 ft | 443 kts | 255° |
| 2026-04-26 01:49 | 30.85556 | 114.42968 | 32052 ft | 442 kts | 255° |
| 2026-04-26 01:50 | 30.83403 | 114.36276 | 32052 ft | 442 kts | 255° |
| 2026-04-26 01:50 | 30.81253 | 114.29614 | 32053 ft | 442 kts | 255° |
| 2026-04-26 01:51 | 30.78938 | 114.22985 | 32052 ft | 446 kts | 251° |
| 2026-04-26 01:51 | 30.76045 | 114.16571 | 32053 ft | 450 kts | 245° |
| 2026-04-26 01:52 | 30.72694 | 114.10388 | 32053 ft | 452 kts | 244° |
| 2026-04-26 01:52 | 30.69321 | 114.04268 | 32052 ft | 452 kts | 244° |
| 2026-04-26 01:53 | 30.65921 | 113.98105 | 32052 ft | 453 kts | 244° |
| 2026-04-26 01:53 | 30.62525 | 113.91952 | 32052 ft | 453 kts | 244° |
| 2026-04-26 01:54 | 30.59139 | 113.85826 | 32052 ft | 453 kts | 244° |
| 2026-04-26 01:54 | 30.55737 | 113.79678 | 32052 ft | 453 kts | 244° |
| 2026-04-26 01:55 | 30.52347 | 113.73556 | 32052 ft | 453 kts | 244° |
| 2026-04-26 01:55 | 30.48926 | 113.67391 | 32052 ft | 454 kts | 244° |
| 2026-04-26 01:56 | 30.45534 | 113.61289 | 32052 ft | 454 kts | 244° |
| 2026-04-26 01:56 | 30.42112 | 113.55142 | 32052 ft | 454 kts | 244° |
| 2026-04-26 01:57 | 30.38705 | 113.49033 | 32052 ft | 453 kts | 244° |
| 2026-04-26 01:57 | 30.35273 | 113.42887 | 32052 ft | 454 kts | 244° |
| 2026-04-26 01:58 | 30.31851 | 113.36770 | 32052 ft | 454 kts | 244° |
| 2026-04-26 01:58 | 30.28419 | 113.30644 | 32053 ft | 454 kts | 243° |
| 2026-04-26 01:59 | 30.24980 | 113.24518 | 32052 ft | 454 kts | 243° |
| 2026-04-26 01:59 | 30.21560 | 113.18431 | 32052 ft | 454 kts | 244° |
| 2026-04-26 02:00 | 30.18181 | 113.12307 | 32052 ft | 452 kts | 244° |
| 2026-04-26 02:00 | 30.14811 | 113.06170 | 32052 ft | 453 kts | 244° |
| 2026-04-26 02:01 | 30.11424 | 113.00019 | 32052 ft | 453 kts | 244° |
| 2026-04-26 02:01 | 30.08010 | 112.93836 | 32056 ft | 452 kts | 244° |
| 2026-04-26 02:02 | 30.04607 | 112.87688 | 32061 ft | 453 kts | 244° |
| 2026-04-26 02:02 | 30.01245 | 112.81618 | 32069 ft | 452 kts | 244° |
| 2026-04-26 02:03 | 29.97845 | 112.75493 | 32075 ft | 452 kts | 244° |
| 2026-04-26 02:03 | 29.94471 | 112.69421 | 32078 ft | 451 kts | 244° |
| 2026-04-26 02:04 | 29.91076 | 112.63321 | 32079 ft | 451 kts | 244° |
| 2026-04-26 02:04 | 29.87692 | 112.57252 | 32077 ft | 451 kts | 244° |
| 2026-04-26 02:05 | 29.84314 | 112.51203 | 32078 ft | 452 kts | 244° |
| 2026-04-26 02:05 | 29.80909 | 112.45115 | 32078 ft | 452 kts | 244° |
| 2026-04-26 02:06 | 29.77517 | 112.39059 | 32079 ft | 451 kts | 244° |
| 2026-04-26 02:06 | 29.74105 | 112.32979 | 32080 ft | 451 kts | 244° |
| 2026-04-26 02:07 | 29.70699 | 112.26932 | 32079 ft | 451 kts | 244° |
| 2026-04-26 02:07 | 29.67287 | 112.20902 | 32079 ft | 451 kts | 244° |
| 2026-04-26 02:08 | 29.63888 | 112.14902 | 32079 ft | 451 kts | 244° |
| 2026-04-26 02:08 | 29.60465 | 112.08871 | 32079 ft | 451 kts | 244° |
| 2026-04-26 02:09 | 29.57060 | 112.02879 | 32079 ft | 451 kts | 244° |
| 2026-04-26 02:09 | 29.53637 | 111.96860 | 32079 ft | 451 kts | 244° |
| 2026-04-26 02:10 | 29.50185 | 111.90804 | 32079 ft | 451 kts | 244° |
| 2026-04-26 02:10 | 29.46766 | 111.84813 | 32079 ft | 451 kts | 243° |
| 2026-04-26 02:11 | 29.43335 | 111.78812 | 32079 ft | 452 kts | 243° |
| 2026-04-26 02:11 | 29.39895 | 111.72806 | 32079 ft | 452 kts | 243° |
| 2026-04-26 02:12 | 29.36602 | 111.66755 | 32079 ft | 448 kts | 247° |
| 2026-04-26 02:12 | 29.33830 | 111.60389 | 32079 ft | 443 kts | 253° |
| 2026-04-26 02:13 | 29.31529 | 111.53885 | 32079 ft | 441 kts | 255° |
| 2026-04-26 02:13 | 29.29267 | 111.47376 | 32079 ft | 440 kts | 255° |
| 2026-04-26 02:14 | 29.26991 | 111.40836 | 32079 ft | 441 kts | 254° |
| 2026-04-26 02:14 | 29.24603 | 111.33993 | 32080 ft | 441 kts | 254° |
| 2026-04-26 02:15 | 29.22317 | 111.27456 | 32079 ft | 441 kts | 254° |
| 2026-04-26 02:15 | 29.19879 | 111.20491 | 32078 ft | 442 kts | 254° |
| 2026-04-26 02:16 | 29.17496 | 111.13699 | 32079 ft | 442 kts | 254° |
| 2026-04-26 02:16 | 29.15128 | 111.06962 | 32078 ft | 442 kts | 253° |
| 2026-04-26 02:17 | 29.12822 | 111.00417 | 32079 ft | 442 kts | 253° |
| 2026-04-26 02:17 | 29.10506 | 110.93851 | 32078 ft | 443 kts | 253° |
| 2026-04-26 02:18 | 29.08212 | 110.87365 | 32079 ft | 443 kts | 253° |
| 2026-04-26 02:18 | 29.05903 | 110.80849 | 32079 ft | 442 kts | 253° |
| 2026-04-26 02:19 | 29.03588 | 110.74326 | 32079 ft | 442 kts | 253° |
| 2026-04-26 02:19 | 29.01306 | 110.67844 | 32079 ft | 443 kts | 253° |
| 2026-04-26 02:20 | 28.99029 | 110.61325 | 32079 ft | 443 kts | 253° |
| 2026-04-26 02:20 | 28.96750 | 110.54813 | 32079 ft | 443 kts | 253° |
| 2026-04-26 02:21 | 28.94457 | 110.48283 | 32079 ft | 443 kts | 253° |
| 2026-04-26 02:21 | 28.92175 | 110.41800 | 32079 ft | 443 kts | 253° |
| 2026-04-26 02:22 | 28.89880 | 110.35290 | 32079 ft | 443 kts | 253° |
| 2026-04-26 02:22 | 28.87574 | 110.28764 | 32079 ft | 443 kts | 253° |
| 2026-04-26 02:23 | 28.85263 | 110.22237 | 32079 ft | 443 kts | 253° |
| 2026-04-26 02:23 | 28.82967 | 110.15759 | 32079 ft | 443 kts | 252° |
| 2026-04-26 02:24 | 28.80650 | 110.09239 | 32078 ft | 443 kts | 252° |
| 2026-04-26 02:24 | 28.78341 | 110.02752 | 32074 ft | 443 kts | 252° |
| 2026-04-26 02:25 | 28.76042 | 109.96285 | 32069 ft | 443 kts | 252° |
| 2026-04-26 02:25 | 28.73719 | 109.89787 | 32065 ft | 443 kts | 252° |
| 2026-04-26 02:26 | 28.71395 | 109.83299 | 32064 ft | 443 kts | 252° |
| 2026-04-26 02:26 | 28.69070 | 109.76815 | 32065 ft | 444 kts | 252° |
| 2026-04-26 02:27 | 28.66735 | 109.70317 | 32069 ft | 444 kts | 252° |
| 2026-04-26 02:27 | 28.64417 | 109.63808 | 32073 ft | 443 kts | 252° |
| 2026-04-26 02:28 | 28.62194 | 109.57278 | 32076 ft | 442 kts | 253° |
| 2026-04-26 02:28 | 28.59982 | 109.50791 | 32078 ft | 443 kts | 252° |